Terminal Aerodrome Forecast
Issued by NWS Albany, NY

Home | Current Version | Previous Version | Text Only | Print | Product List | Glossary On
Versions: 1 2 3 4 5 6 7 8 9 10 11 12 13 14 15 16 17 18 19 20 21 22 23
000
FTUS41 KALY 261100 RRA
TAFGFL
TAF
KGFL 261147Z 2612/2712 22004KT P6SM OVC035
     FM261600 23006KT P6SM BKN035 BKN250
     FM262200 22006KT P6SM SCT050 SCT250
     FM270300 VRB03KT P6SM SCT050 SCT250
     FM270800 00000KT P6SM BKN050=

USA.gov is the U.S. government's official web portal to all federal, state and local government web resources and services.